Aylett, Virginia
Current Conditions -  °F | °C
As of 2:15 PM on Sunday 23 Nov 2014 (Local Time) from KXSA Reporting Station
Clear Clear  
Wind Chill: 57°   Ceiling: Unl
Heat Index: 57°   Visibility: 10mi
Dew Point: 42°   Wind: 5mph
Humidity: 57%   Direction: 170°S
Pressure: 30.14"   Gusts: NA
Location:  37.79°N, 77.11°W
Report Text: KXSA 231915Z AUTO 17004KT 10SM CLR 14/06 A3014 RMK AO2 T01400055
Loading
Personal Weather Stations






























Interactive Weather Map New forecast layout! Learn more

10-Day Weather Forecast

Advertisements
Track Severe Weather on mobile